createdAt,value
2018-06-11T00:01:15.038Z,77.80
2018-06-11T00:03:42.741Z,77.60
2018-06-11T00:06:10.126Z,78.00
2018-06-11T00:08:37.579Z,78.00
2018-06-11T00:11:04.931Z,77.90
2018-06-11T00:13:32.895Z,77.90
2018-06-11T00:18:27.918Z,77.90
2018-06-11T00:20:56.468Z,77.70
2018-06-11T00:23:24.404Z,77.70
2018-06-11T00:25:51.749Z,77.80
2018-06-11T00:28:22.552Z,77.80
2018-06-11T00:30:51.071Z,78.00
2018-06-11T00:33:19.241Z,78.20
2018-06-11T00:35:47.591Z,78.40
2018-06-11T00:38:15.049Z,78.40
2018-06-11T00:40:43.709Z,78.50
2018-06-11T00:43:11.885Z,79.00
2018-06-11T00:45:39.349Z,79.40
2018-06-11T00:48:07.579Z,79.80
2018-06-11T00:50:39.867Z,80.00
2018-06-11T00:53:08.457Z,80.10
2018-06-11T00:55:48.299Z,80.40
2018-06-11T00:58:15.732Z,80.30
2018-06-11T01:00:43.296Z,80.30
2018-06-11T01:03:10.656Z,80.30
2018-06-11T01:05:38.139Z,80.40
2018-06-11T01:08:05.613Z,80.50
2018-06-11T01:10:33.199Z,80.50
2018-06-11T01:13:00.779Z,80.50
2018-06-11T01:15:28.200Z,80.80
2018-06-11T01:17:55.839Z,81.30
2018-06-11T01:20:23.359Z,81.60
2018-06-11T01:22:50.804Z,82.00
2018-06-11T01:25:18.865Z,81.80
2018-06-11T01:27:46.339Z,81.60
2018-06-11T01:30:13.688Z,81.50
2018-06-11T01:32:41.135Z,81.60
2018-06-11T01:35:08.493Z,81.30
2018-06-11T01:37:35.891Z,81.00
2018-06-11T01:40:03.283Z,80.00
2018-06-11T01:42:30.643Z,80.00
2018-06-11T01:44:58.002Z,80.20
2018-06-11T01:47:25.509Z,81.40
2018-06-11T01:49:52.952Z,80.50
2018-06-11T01:52:20.341Z,80.30
2018-06-11T01:54:47.654Z,80.60
2018-06-11T01:57:15.174Z,80.60
2018-06-11T01:59:42.527Z,81.00
2018-06-11T02:02:10.292Z,81.00
2018-06-11T02:04:38.054Z,80.80
2018-06-11T02:07:05.550Z,80.60
2018-06-11T02:09:32.922Z,80.60
2018-06-11T02:12:31.575Z,80.60
2018-06-11T02:14:59.044Z,80.80
2018-06-11T02:17:27.924Z,81.00
2018-06-11T02:19:55.297Z,80.90
2018-06-11T02:24:50.000Z,80.60
2018-06-11T02:27:17.349Z,80.90
2018-06-11T02:29:44.715Z,80.80
2018-06-11T02:32:12.421Z,80.80
2018-06-11T02:34:39.862Z,80.80
2018-06-11T02:37:07.136Z,80.50
2018-06-11T02:39:34.579Z,80.80
2018-06-11T02:42:01.891Z,81.00
2018-06-11T02:46:57.995Z,81.10
2018-06-11T02:49:25.326Z,82.00
2018-06-11T02:51:52.630Z,81.20
2018-06-11T02:54:20.020Z,81.10
2018-06-11T02:56:47.300Z,81.30
2018-06-11T02:59:14.687Z,81.10
2018-06-11T03:01:42.081Z,81.50
2018-06-11T03:04:09.423Z,81.40
2018-06-11T03:06:36.859Z,81.80
2018-06-11T03:09:06.215Z,82.00
2018-06-11T03:11:33.553Z,82.10
2018-06-11T03:14:00.884Z,82.10
2018-06-11T03:16:28.294Z,81.80
2018-06-11T03:18:55.667Z,82.00
2018-06-11T03:21:22.945Z,82.10
2018-06-11T03:23:50.381Z,82.10
2018-06-11T03:26:17.759Z,82.10
2018-06-11T03:28:45.122Z,82.30
2018-06-11T03:31:12.482Z,83.20
2018-06-11T03:33:39.785Z,82.30
2018-06-11T03:36:07.117Z,82.30
2018-06-11T03:38:34.739Z,82.30
2018-06-11T03:41:02.270Z,82.10
2018-06-11T03:43:29.546Z,82.00
2018-06-11T03:45:56.966Z,81.50
2018-06-11T03:48:24.386Z,81.10
2018-06-11T03:53:19.171Z,80.90
2018-06-11T03:55:46.530Z,80.60
2018-06-11T03:58:14.551Z,80.40
2018-06-11T04:00:42.059Z,80.30
2018-06-11T04:03:09.334Z,80.10
2018-06-11T04:05:36.962Z,79.60
2018-06-11T04:08:04.589Z,79.40
2018-06-11T04:10:32.062Z,79.60
2018-06-11T04:12:59.502Z,79.80
2018-06-11T04:15:26.965Z,79.80
2018-06-11T04:17:54.326Z,79.50
2018-06-11T04:20:21.639Z,79.50
2018-06-11T04:22:48.914Z,79.30
2018-06-11T04:25:16.524Z,79.00
2018-06-11T04:27:43.809Z,79.00
2018-06-11T04:30:11.150Z,79.00
2018-06-11T04:32:38.434Z,79.10
2018-06-11T04:35:05.825Z,79.00
2018-06-11T04:37:33.141Z,79.00
2018-06-11T04:40:00.959Z,78.70
2018-06-11T04:42:28.346Z,78.40
2018-06-11T04:44:55.734Z,78.20
2018-06-11T04:47:25.844Z,77.60
2018-06-11T04:49:53.138Z,77.60
2018-06-11T04:52:20.437Z,77.40
2018-06-11T04:54:47.794Z,77.10
2018-06-11T04:57:15.231Z,76.90
2018-06-11T04:59:42.790Z,76.90
2018-06-11T05:02:10.247Z,76.60
2018-06-11T05:04:37.636Z,76.20
2018-06-11T05:07:05.183Z,76.00
2018-06-11T05:09:32.634Z,75.40
2018-06-11T05:11:59.962Z,75.40
2018-06-11T05:14:27.281Z,75.90
2018-06-11T05:16:54.597Z,76.00
2018-06-11T05:19:21.913Z,75.80
2018-06-11T05:21:49.298Z,75.40
2018-06-11T05:24:16.663Z,75.40
2018-06-11T05:26:43.928Z,75.20
2018-06-11T05:29:11.238Z,75.00
2018-06-11T05:31:38.683Z,74.20
2018-06-11T05:34:06.202Z,74.50
2018-06-11T05:36:33.666Z,75.00
2018-06-11T05:39:01.022Z,74.90
2018-06-11T05:41:28.364Z,74.60
2018-06-11T05:43:55.735Z,74.70
2018-06-11T05:46:23.070Z,74.60
2018-06-11T05:48:50.422Z,74.40
2018-06-11T05:51:17.819Z,74.20
2018-06-11T05:53:45.286Z,74.00
2018-06-11T05:56:12.590Z,73.90
2018-06-11T05:58:39.975Z,73.70
2018-06-11T06:01:07.303Z,73.40
2018-06-11T06:03:34.603Z,73.50
2018-06-11T06:06:02.041Z,73.70
2018-06-11T06:08:29.493Z,73.90
2018-06-11T06:10:56.807Z,73.90
2018-06-11T06:13:24.086Z,73.90
2018-06-11T06:15:51.495Z,73.50
2018-06-11T06:18:19.383Z,73.10
2018-06-11T06:20:46.898Z,74.00
2018-06-11T06:23:14.234Z,74.00
2018-06-11T06:25:41.827Z,73.90
2018-06-11T06:28:09.136Z,72.30
2018-06-11T06:30:36.481Z,71.80
2018-06-11T06:33:03.901Z,70.60
2018-06-11T06:35:31.517Z,71.20
2018-06-11T06:37:58.898Z,69.80
2018-06-11T06:40:26.227Z,69.80
2018-06-11T06:42:53.630Z,69.00
2018-06-11T06:45:21.142Z,67.50
2018-06-11T06:47:48.478Z,66.60
2018-06-11T06:50:15.758Z,66.10
2018-06-11T06:52:43.073Z,65.50
2018-06-11T06:57:37.794Z,64.90
2018-06-11T07:00:05.096Z,64.00
2018-06-11T07:02:32.377Z,64.30
2018-06-11T07:04:59.646Z,64.00
2018-06-11T07:07:27.082Z,64.00
2018-06-11T07:09:54.444Z,64.60
2018-06-11T07:12:21.895Z,64.80
2018-06-11T07:14:49.281Z,64.60
2018-06-11T07:17:16.642Z,64.10
2018-06-11T07:19:44.013Z,63.90
2018-06-11T07:22:11.346Z,63.80
2018-06-11T07:24:38.856Z,62.80
2018-06-11T07:27:06.190Z,62.70
2018-06-11T07:29:33.599Z,63.10
2018-06-11T07:32:01.076Z,62.80
2018-06-11T07:34:28.427Z,62.90
2018-06-11T07:36:55.730Z,63.20
2018-06-11T07:39:23.057Z,61.40
2018-06-11T07:41:50.484Z,60.40
2018-06-11T07:44:17.852Z,59.70
2018-06-11T07:46:45.210Z,59.30
2018-06-11T07:49:12.675Z,59.00
2018-06-11T07:51:40.022Z,59.00
2018-06-11T07:54:07.318Z,58.70
2018-06-11T07:56:34.663Z,58.00
2018-06-11T07:59:02.039Z,57.90
2018-06-11T08:01:29.823Z,57.50
2018-06-11T08:03:57.080Z,57.30
2018-06-11T08:06:24.384Z,56.20
2018-06-11T08:08:51.732Z,56.40
2018-06-11T08:11:19.198Z,55.30
2018-06-11T08:13:46.541Z,55.00
2018-06-11T08:16:13.886Z,55.70
2018-06-11T08:18:41.216Z,55.50
2018-06-11T08:21:08.550Z,54.30
2018-06-11T08:23:35.871Z,54.40
2018-06-11T08:26:03.285Z,54.80
2018-06-11T08:28:30.698Z,55.50
2018-06-11T08:30:58.051Z,55.40
2018-06-11T08:33:25.481Z,55.50
2018-06-11T08:35:52.759Z,55.70
2018-06-11T08:38:20.092Z,55.80
2018-06-11T08:40:47.393Z,55.00
2018-06-11T08:43:14.836Z,55.50
2018-06-11T08:45:42.115Z,54.70
2018-06-11T08:48:09.418Z,54.90
2018-06-11T08:50:36.847Z,54.90
2018-06-11T08:53:04.390Z,54.30
2018-06-11T08:55:31.754Z,53.10
2018-06-11T08:57:58.998Z,52.90
2018-06-11T09:00:26.450Z,53.50
2018-06-11T09:02:53.728Z,53.80
2018-06-11T09:05:21.247Z,54.80
2018-06-11T09:07:48.729Z,54.20
2018-06-11T09:10:16.208Z,54.50
2018-06-11T09:12:43.529Z,55.30
2018-06-11T09:15:10.878Z,53.30
2018-06-11T09:17:38.140Z,53.50
2018-06-11T09:20:05.482Z,52.40
2018-06-11T09:22:32.913Z,52.50
2018-06-11T09:25:00.820Z,51.70
2018-06-11T09:27:28.285Z,51.90
2018-06-11T09:29:56.079Z,51.00
2018-06-11T09:32:23.507Z,51.00
2018-06-11T09:34:51.008Z,50.90
2018-06-11T09:37:18.459Z,51.00
2018-06-11T09:39:45.977Z,52.00
2018-06-11T09:42:13.276Z,51.60
2018-06-11T09:44:40.648Z,52.20
2018-06-11T09:47:07.904Z,52.40
2018-06-11T09:49:35.383Z,51.20
2018-06-11T09:52:03.311Z,52.20
2018-06-11T09:56:58.488Z,51.90
2018-06-11T09:59:28.200Z,51.10
2018-06-11T10:01:55.602Z,51.30
2018-06-11T10:04:22.952Z,51.70
2018-06-11T10:06:50.235Z,52.60
2018-06-11T10:09:17.703Z,50.30
2018-06-11T10:11:45.016Z,51.70
2018-06-11T10:14:14.162Z,50.40
2018-06-11T10:16:43.153Z,48.50
2018-06-11T10:19:10.560Z,47.10
2018-06-11T10:21:38.010Z,47.10
2018-06-11T10:24:05.396Z,48.00
2018-06-11T10:26:32.731Z,48.00
2018-06-11T10:29:00.084Z,48.10
2018-06-11T10:31:27.376Z,49.80
2018-06-11T10:33:54.850Z,49.50
2018-06-11T10:36:22.226Z,49.00
2018-06-11T10:38:49.574Z,49.20
2018-06-11T10:41:16.970Z,49.60
2018-06-11T10:43:44.405Z,49.40
2018-06-11T10:46:12.440Z,48.80
2018-06-11T10:48:39.717Z,47.10
2018-06-11T10:51:07.108Z,47.90
2018-06-11T10:53:34.450Z,47.40
2018-06-11T10:56:01.751Z,46.50
2018-06-11T10:58:40.292Z,46.10
2018-06-11T11:01:07.734Z,46.80
2018-06-11T11:03:35.381Z,45.90
2018-06-11T11:06:02.869Z,45.00
2018-06-11T11:08:30.317Z,44.30
2018-06-11T11:10:57.679Z,43.90
2018-06-11T11:13:25.144Z,44.40
2018-06-11T11:15:52.532Z,44.40
2018-06-11T11:18:19.886Z,43.60
2018-06-11T11:20:47.172Z,43.70
2018-06-11T11:23:14.562Z,43.10
2018-06-11T11:25:41.939Z,42.80
2018-06-11T11:28:09.273Z,44.20
2018-06-11T11:30:36.589Z,44.50
2018-06-11T11:33:05.095Z,44.30
2018-06-11T11:35:32.443Z,45.10
2018-06-11T11:37:59.790Z,43.90
2018-06-11T11:40:27.156Z,43.40
2018-06-11T11:42:54.636Z,42.00
2018-06-11T11:47:55.524Z,40.30
2018-06-11T11:50:22.961Z,40.90
2018-06-11T11:52:50.398Z,39.40
2018-06-11T11:55:17.707Z,40.20
2018-06-11T11:57:45.008Z,40.20
2018-06-11T12:00:12.403Z,38.90
2018-06-11T12:02:39.696Z,39.10
2018-06-11T12:05:07.690Z,39.30
2018-06-11T12:07:34.977Z,38.50
2018-06-11T12:10:02.570Z,38.30
2018-06-11T12:12:29.857Z,37.80
2018-06-11T12:14:57.897Z,36.90
2018-06-11T12:17:25.237Z,37.40
2018-06-11T12:19:52.651Z,37.00
2018-06-11T12:22:20.010Z,37.60
2018-06-11T12:24:47.278Z,37.30
2018-06-11T12:27:14.565Z,37.10
2018-06-11T12:29:41.905Z,37.20
2018-06-11T12:32:09.821Z,37.40
2018-06-11T12:34:37.182Z,37.20
2018-06-11T12:37:04.531Z,36.20
2018-06-11T12:39:31.884Z,37.50
2018-06-11T12:41:59.328Z,37.70
2018-06-11T12:44:26.700Z,35.70
2018-06-11T12:46:54.127Z,34.90
2018-06-11T12:49:21.429Z,34.30
2018-06-11T12:51:48.756Z,34.80
2018-06-11T12:54:16.201Z,34.70
2018-06-11T12:56:43.549Z,34.80
2018-06-11T12:59:11.138Z,35.00
2018-06-11T13:01:38.598Z,33.90
2018-06-11T13:04:05.960Z,34.30
2018-06-11T13:06:33.359Z,33.20
2018-06-11T13:09:00.748Z,33.80
2018-06-11T13:11:28.103Z,34.60
2018-06-11T13:13:55.518Z,34.70
2018-06-11T13:16:22.859Z,35.80
2018-06-11T13:18:50.318Z,36.60
2018-06-11T13:23:44.998Z,38.10
2018-06-11T13:26:12.332Z,38.60
2018-06-11T13:28:39.764Z,39.30
2018-06-11T13:31:07.072Z,40.80
2018-06-11T13:33:34.369Z,41.50
2018-06-11T13:36:01.695Z,41.80
2018-06-11T13:38:29.126Z,41.20
2018-06-11T13:40:56.606Z,41.60
2018-06-11T13:43:23.946Z,42.00
2018-06-11T13:45:51.279Z,42.30
2018-06-11T13:48:18.687Z,42.60
2018-06-11T13:50:46.000Z,42.40
2018-06-11T13:53:13.300Z,42.50
2018-06-11T13:55:40.581Z,42.80
2018-06-11T13:58:08.019Z,42.70
2018-06-11T14:00:35.303Z,43.40
2018-06-11T14:03:03.012Z,44.60
2018-06-11T14:05:30.347Z,46.50
2018-06-11T14:07:57.915Z,47.10
2018-06-11T14:10:25.973Z,48.10
2018-06-11T14:12:53.315Z,47.40
2018-06-11T14:15:20.689Z,47.30
2018-06-11T14:17:50.607Z,47.40
2018-06-11T14:25:13.186Z,47.50
2018-06-11T14:27:40.639Z,47.30
2018-06-11T14:30:08.935Z,46.70
2018-06-11T14:35:03.778Z,44.90
2018-06-11T14:37:31.141Z,43.90
2018-06-11T14:39:58.468Z,43.30
2018-06-11T14:42:25.798Z,42.90
2018-06-11T14:44:54.964Z,41.60
2018-06-11T14:47:22.768Z,41.10
2018-06-11T14:49:50.326Z,39.80
2018-06-11T14:52:18.283Z,38.80
2018-06-11T14:54:45.835Z,37.80
2018-06-11T14:57:14.525Z,36.60
2018-06-11T14:59:42.183Z,37.30
2018-06-11T15:02:09.642Z,37.90
2018-06-11T15:04:38.777Z,38.50
2018-06-11T15:07:06.434Z,38.20
2018-06-11T15:09:34.046Z,38.70
2018-06-11T15:12:02.007Z,39.90
2018-06-11T15:14:30.365Z,40.90
2018-06-11T15:16:58.100Z,41.00
2018-06-11T15:19:25.781Z,41.80
2018-06-11T15:21:53.273Z,42.40
2018-06-11T15:24:21.249Z,44.00
2018-06-11T15:26:49.307Z,44.30
2018-06-11T15:29:17.100Z,44.10
2018-06-11T15:31:45.296Z,45.00
2018-06-11T15:34:13.372Z,45.20
2018-06-11T15:36:41.494Z,46.00
2018-06-11T15:39:11.094Z,46.60
2018-06-11T15:41:38.866Z,47.10
2018-06-11T15:44:06.546Z,47.70
2018-06-11T15:46:34.236Z,48.50
2018-06-11T15:49:02.774Z,50.10
2018-06-11T15:51:31.913Z,51.70
2018-06-11T15:54:01.111Z,53.10
2018-06-11T15:56:29.962Z,54.00
2018-06-11T15:58:57.825Z,57.20
2018-06-11T16:01:26.609Z,60.40
2018-06-11T16:03:55.089Z,61.80
2018-06-11T16:06:23.853Z,62.80
2018-06-11T16:08:52.124Z,63.30
2018-06-11T16:11:21.504Z,66.50
2018-06-11T16:13:49.552Z,67.60
2018-06-11T16:16:17.706Z,67.80
2018-06-11T16:18:46.982Z,68.90
2018-06-11T16:21:15.169Z,68.70
2018-06-11T16:23:44.426Z,68.50
2018-06-11T16:26:12.779Z,68.40
2018-06-11T16:28:41.031Z,68.30
2018-06-11T16:31:09.600Z,68.40
2018-06-11T16:33:38.660Z,68.80
2018-06-11T16:36:07.461Z,69.40
2018-06-11T16:38:35.771Z,69.30
2018-06-11T16:41:06.211Z,68.60
2018-06-11T16:43:35.387Z,68.10
2018-06-11T16:46:04.271Z,67.40
2018-06-11T16:48:32.633Z,68.00
2018-06-11T16:51:01.659Z,67.70
2018-06-11T16:53:29.947Z,68.00
2018-06-11T16:55:59.082Z,69.80
2018-06-11T16:58:26.915Z,70.50
2018-06-11T17:00:55.080Z,71.10
2018-06-11T17:03:23.489Z,70.90
2018-06-11T17:05:51.777Z,68.00
2018-06-11T17:08:21.815Z,66.40
2018-06-11T17:10:49.534Z,64.20
2018-06-11T17:13:17.155Z,63.60
2018-06-11T17:15:45.125Z,64.30
2018-06-11T17:18:12.884Z,64.90
2018-06-11T17:20:41.459Z,66.00
2018-06-11T17:23:09.297Z,63.90
2018-06-11T17:25:39.114Z,60.90
2018-06-11T17:28:06.588Z,58.80
2018-06-11T17:30:34.139Z,59.50
2018-06-11T17:33:01.585Z,66.50
2018-06-11T17:35:29.857Z,67.90
2018-06-11T17:37:57.482Z,68.80
2018-06-11T17:40:24.900Z,67.10
2018-06-11T17:42:52.534Z,66.60
2018-06-11T17:45:19.985Z,67.80
2018-06-11T17:47:48.892Z,69.20
2018-06-11T17:50:17.744Z,68.60
2018-06-11T17:52:47.082Z,69.20
2018-06-11T17:55:15.561Z,69.80
2018-06-11T17:57:43.006Z,70.00
2018-06-11T18:00:10.757Z,70.20
2018-06-11T18:02:39.375Z,70.90
2018-06-11T18:05:07.497Z,71.30
2018-06-11T18:07:35.963Z,72.50
2018-06-11T18:10:03.532Z,72.70
2018-06-11T18:12:32.513Z,73.00
2018-06-11T18:15:01.581Z,73.70
2018-06-11T18:20:00.353Z,73.40
2018-06-11T18:22:28.355Z,73.70
2018-06-11T18:24:56.161Z,73.70
2018-06-11T18:27:23.543Z,74.80
2018-06-11T18:29:52.018Z,74.40
2018-06-11T18:32:20.023Z,75.00
2018-06-11T18:34:47.573Z,75.70
2018-06-11T18:37:15.517Z,76.00
2018-06-11T18:39:43.249Z,76.80
2018-06-11T18:42:17.391Z,77.10
2018-06-11T18:44:45.683Z,77.20
2018-06-11T18:47:13.399Z,77.20
2018-06-11T18:49:41.174Z,77.30
2018-06-11T18:52:11.550Z,77.40
2018-06-11T18:54:40.463Z,77.30
2018-06-11T18:57:08.053Z,77.00
2018-06-11T18:59:35.645Z,76.90
2018-06-11T19:02:03.139Z,76.70
2018-06-11T19:04:31.313Z,76.90
2018-06-11T19:06:59.462Z,77.10
2018-06-11T19:09:27.510Z,77.20
2018-06-11T19:11:56.565Z,77.90
2018-06-11T19:14:24.026Z,78.50
2018-06-11T19:16:58.073Z,77.70
2018-06-11T19:19:26.053Z,77.50
2018-06-11T19:21:53.630Z,76.90
2018-06-11T19:24:22.123Z,77.10
2018-06-11T19:26:50.054Z,76.30
2018-06-11T19:29:17.568Z,76.60
2018-06-11T19:31:45.142Z,76.40
2018-06-11T19:34:12.938Z,76.60
2018-06-11T19:36:40.523Z,76.80
2018-06-11T19:39:08.278Z,77.20
2018-06-11T19:41:36.147Z,77.00
2018-06-11T19:44:05.905Z,77.30
2018-06-11T19:46:33.851Z,77.60
2018-06-11T19:49:01.464Z,77.60
2018-06-11T19:51:29.120Z,78.20
2018-06-11T19:54:25.168Z,78.60
2018-06-11T19:56:59.611Z,79.10
2018-06-11T19:59:27.478Z,79.80
2018-06-11T20:01:55.268Z,80.60
2018-06-11T20:04:23.237Z,81.10
2018-06-11T20:06:51.054Z,81.70
2018-06-11T20:09:22.040Z,82.30
2018-06-11T20:11:50.584Z,82.70
2018-06-11T20:14:20.066Z,83.30
2018-06-11T20:16:48.044Z,83.50
2018-06-11T20:19:15.662Z,83.70
2018-06-11T20:21:43.476Z,84.10
2018-06-11T20:24:12.150Z,84.50
2018-06-11T20:26:41.256Z,84.40
2018-06-11T20:29:11.125Z,84.50
2018-06-11T20:31:38.586Z,84.80
2018-06-11T20:34:08.915Z,85.00
2018-06-11T20:39:06.501Z,85.80
2018-06-11T20:41:34.112Z,86.10
2018-06-11T20:44:01.970Z,86.50
2018-06-11T20:46:38.475Z,86.50
2018-06-11T20:49:07.246Z,86.60
2018-06-11T20:51:34.896Z,86.60
2018-06-11T20:54:02.340Z,86.70
2018-06-11T20:56:31.792Z,86.80
2018-06-11T20:58:59.508Z,86.60
2018-06-11T21:01:27.074Z,86.60
2018-06-11T21:03:54.725Z,86.80
2018-06-11T21:06:23.123Z,86.80
2018-06-11T21:08:50.979Z,87.00
2018-06-11T21:11:20.711Z,87.00
2018-06-11T21:13:48.581Z,87.10
2018-06-11T21:16:22.098Z,87.00
2018-06-11T21:18:50.349Z,86.90
2018-06-11T21:21:19.432Z,86.80
2018-06-11T21:23:47.011Z,86.80
2018-06-11T21:26:14.688Z,86.80
2018-06-11T21:28:43.885Z,87.00
2018-06-11T21:31:11.961Z,86.80
2018-06-11T21:33:39.527Z,87.00
2018-06-11T21:36:07.459Z,87.00
2018-06-11T21:38:34.874Z,86.80
2018-06-11T21:41:02.402Z,86.90
2018-06-11T21:43:37.113Z,87.10
2018-06-11T21:46:04.725Z,87.30
2018-06-11T21:48:32.338Z,87.10
2018-06-11T21:50:59.694Z,87.50
2018-06-11T21:53:27.322Z,87.60
2018-06-11T21:55:55.000Z,87.60
2018-06-11T21:58:31.686Z,87.70
2018-06-11T22:00:59.106Z,87.60
2018-06-11T22:03:26.622Z,87.80
2018-06-11T22:05:54.111Z,88.10
2018-06-11T22:08:21.647Z,88.50
2018-06-11T22:10:48.970Z,88.50
2018-06-11T22:13:17.101Z,88.60
2018-06-11T22:15:46.153Z,88.60
2018-06-11T22:18:14.051Z,88.60
2018-06-11T22:20:59.569Z,88.60
2018-06-11T22:23:37.133Z,88.80
2018-06-11T22:26:15.009Z,88.30
2018-06-11T22:31:24.021Z,87.80
2018-06-11T22:33:57.658Z,87.10
2018-06-11T22:36:58.266Z,87.00
2018-06-11T22:39:48.372Z,86.00
2018-06-11T22:42:16.067Z,85.50
2018-06-11T22:44:56.305Z,84.70
2018-06-11T22:50:34.195Z,85.50
2018-06-11T22:53:09.988Z,86.00
2018-06-11T22:55:48.443Z,86.20
2018-06-11T22:58:22.237Z,86.10
2018-06-11T23:01:02.596Z,86.10
2018-06-11T23:03:45.602Z,86.00
2018-06-11T23:06:23.271Z,85.80
2018-06-11T23:08:58.346Z,85.80
2018-06-11T23:11:34.981Z,85.50
2018-06-11T23:14:09.277Z,84.70
2018-06-11T23:16:53.840Z,85.00
2018-06-11T23:19:28.581Z,84.50
2018-06-11T23:22:01.483Z,84.60
2018-06-11T23:24:29.013Z,85.80
2018-06-11T23:27:12.919Z,84.20
2018-06-11T23:29:45.777Z,84.50
2018-06-11T23:32:19.702Z,84.30
2018-06-11T23:34:47.390Z,84.30
2018-06-11T23:37:14.694Z,84.40
2018-06-11T23:39:42.006Z,84.50
2018-06-11T23:42:09.588Z,84.30
2018-06-11T23:44:37.351Z,84.20
2018-06-11T23:47:12.620Z,84.30
2018-06-11T23:49:42.236Z,84.00
2018-06-11T23:52:09.622Z,84.20
2018-06-11T23:57:05.099Z,84.00
2018-06-11T23:59:36.048Z,84.00
